Aérodrome :
LOGIN :

S'inscrire | Disclaimer

   EN    FR    IT 

 










Légende :    VFR   VFR Marginal   IFR   IFR Intensif   IFR Très Intensif
Visi : 
Plafond : 
>= 8 km
>= 3000ft
5 à 8 km
1000 à 3000 ft
1500m à 5 km
500 à 1000 ft
800 à 1500m
200 à 500 ft
< 800m
< 200 ft
Symboles :   Orages  Brouillard  Fortes neiges  Fortes précipitations  Vent > 20 kt
SIGMETs :   Divers  Orages  Givrage  Turbulence  Onde Orograph.  Cendres Volcan.






- Altitude de l'aérodrome : 1682 ft
- Code IATA : VIT


LEVT - Vitoria Gasteiz

DERNIER METAR :
  • 281230Z 07003KT 360V140 9999 FEW030 15/03 Q1018

METARs EXPIRÉS :
  • 281200Z 12002KT 9999 FEW045 14/01 Q1018
  • 281130Z 05003KT CAVOK 14/02 Q1019
  • 281100Z 11003KT 030V200 CAVOK 12/02 Q1019
  • 281030Z 08001KT CAVOK 11/03 Q1019
  • 281000Z 20001KT CAVOK 09/03 Q1019

TAF TAF LEVT
Valide du 28 à 12h jusqu'au 29 à 12h UTC


281100Z 2812/2912 VRB05KT CAVOK TX15/2814Z TNM02/2906Z
PROB30
TEMPO 2812/2819 02010KT



MET'MAP, la Météo Aéronautique d'un coup d'oeil ! - Copyright ORBIFLY Décembre 2007 - Disclaimer

ORBIFLY MET'MAP TEAM :

Programmation & Développement : Alexandra Zaïnal
Sur une idée originale de : Baudouin d'Aumeries
Assistance à la programmation : Marc-Olivier Méhu
Soutien technique & logistique : Manuel Goepfert

Contact : metmap@orbifly.com




SOURCES & CREDITS :

   NOAA